Time;durP1;ratioP1;P1;durP2;ratioP2;P2;SDS_P1;SDS_P2;PMS_P1;PMS_P2;Temp;Humidity;BMP_temperature;BMP_pressure;BME280_temperature;BME280_humidity;BME280_pressure;Samples;Min_cycle;Max_cycle;Signal;HPM_P1;HPM_P2
2023/10/21 00:00:53;;;;;;;26.38;13.70;;;;;;;;;;5033654;28;20012;-66
2023/10/21 00:03:18;;;;;;;26.35;14.05;;;;;;;;;;5024219;28;20369;-68
2023/10/21 00:05:43;;;;;;;25.40;12.95;;;;;;;;;;5027193;28;20075;-68
2023/10/21 00:08:08;;;;;;;27.63;13.55;;;;;;;;;;5028389;28;20085;-68
2023/10/21 00:10:33;;;;;;;23.38;12.27;;;;;;;;;;5030765;28;20098;-68
2023/10/21 00:12:59;;;;;;;23.70;12.85;;;;;;;;;;5024359;28;20017;-67
2023/10/21 00:15:24;;;;;;;18.13;11.20;;;;;;;;;;5027237;28;20349;-67
2023/10/21 00:17:49;;;;;;;20.05;11.32;;;;;;;;;;5027985;28;20097;-68
2023/10/21 00:20:15;;;;;;;20.98;11.00;;;;;;;;;;5027606;28;20399;-66
2023/10/21 00:22:40;;;;;;;19.02;10.70;;;;;;;;;;5033207;28;20095;-66
2023/10/21 00:25:05;;;;;;;19.98;10.85;;;;;;;;;;5025644;28;20018;-68
2023/10/21 00:27:30;;;;;;;16.90;9.93;;;;;;;;;;5031924;28;20014;-68
2023/10/21 00:29:55;;;;;;;20.73;11.13;;;;;;;;;;5025795;28;20024;-68
2023/10/21 00:32:21;;;;;;;20.20;10.50;;;;;;;;;;5027185;28;20015;-67
2023/10/21 00:34:46;;;;;;;23.90;11.35;;;;;;;;;;5026887;28;20017;-67
2023/10/21 00:37:11;;;;;;;22.17;11.23;;;;;;;;;;4992443;28;20060;-65
2023/10/21 00:39:37;;;;;;;22.65;11.38;;;;;;;;;;5036206;28;20013;-68
2023/10/21 00:42:02;;;;;;;22.23;11.52;;;;;;;;;;5027411;28;20015;-67
2023/10/21 00:44:27;;;;;;;24.13;10.98;;;;;;;;;;5007836;28;20017;-66
2023/10/21 00:46:53;;;;;;;20.70;11.35;;;;;;;;;;5026755;28;20017;-69
2023/10/21 00:49:18;;;;;;;28.33;11.40;;;;;;;;;;5026830;28;20555;-67
2023/10/21 00:51:45;;;;;;;20.20;10.85;;;;;;;;;;5024723;28;20534;-67
2023/10/21 00:54:10;;;;;;;19.58;9.45;;;;;;;;;;5027401;28;20017;-65
2023/10/21 00:56:36;;;;;;;26.55;10.50;;;;;;;;;;5029191;28;20028;-67
2023/10/21 00:59:01;;;;;;;25.17;10.13;;;;;;;;;;5036496;28;20360;-67
2023/10/21 01:01:27;;;;;;;20.00;10.05;;;;;;;;;;5026410;28;20413;-67
2023/10/21 01:03:52;;;;;;;18.45;8.75;;;;;;;;;;5026561;28;20045;-68
2023/10/21 01:06:17;;;;;;;16.10;8.95;;;;;;;;;;5024922;28;20392;-67
2023/10/21 01:08:43;;;;;;;14.55;7.38;;;;;;;;;;5023766;28;20032;-67
2023/10/21 01:11:09;;;;;;;13.35;7.38;;;;;;;;;;5026302;28;20033;-66
2023/10/21 01:13:34;;;;;;;15.85;7.57;;;;;;;;;;5028214;28;20448;-66
2023/10/21 01:15:59;;;;;;;14.57;7.28;;;;;;;;;;5034746;28;20660;-65
2023/10/21 01:18:25;;;;;;;13.75;6.68;;;;;;;;;;5008641;28;20028;-67
2023/10/21 01:20:53;;;;;;;12.95;7.47;;;;;;;;;;5033831;28;20028;-67
2023/10/21 01:23:18;;;;;;;16.23;7.15;;;;;;;;;;5006347;28;20061;-67
2023/10/21 01:25:43;;;;;;;13.45;7.53;;;;;;;;;;5024064;28;20110;-69
2023/10/21 01:28:09;;;;;;;10.15;6.07;;;;;;;;;;5025549;28;20488;-68
2023/10/21 01:30:34;;;;;;;12.50;6.35;;;;;;;;;;5025141;28;20040;-68
2023/10/21 01:32:59;;;;;;;13.95;6.53;;;;;;;;;;5026705;28;20805;-66
2023/10/21 01:35:25;;;;;;;13.60;6.25;;;;;;;;;;5024148;28;20021;-68
2023/10/21 01:37:50;;;;;;;12.90;6.30;;;;;;;;;;5031789;28;20051;-66
2023/10/21 01:40:15;;;;;;;12.98;6.07;;;;;;;;;;5033615;28;20016;-67
2023/10/21 01:42:40;;;;;;;13.10;5.95;;;;;;;;;;5025294;28;20017;-68
2023/10/21 01:45:07;;;;;;;11.15;6.00;;;;;;;;;;5028725;28;20029;-65
2023/10/21 01:47:33;;;;;;;15.63;6.85;;;;;;;;;;5035179;28;20108;-67
2023/10/21 01:49:58;;;;;;;15.10;6.55;;;;;;;;;;5034647;28;20132;-66
2023/10/21 01:52:24;;;;;;;12.63;6.88;;;;;;;;;;5025960;28;20036;-67
2023/10/21 01:54:49;;;;;;;18.55;7.88;;;;;;;;;;5025913;28;20056;-66
2023/10/21 01:57:14;;;;;;;23.85;9.07;;;;;;;;;;5034172;28;20013;-66
2023/10/21 01:59:40;;;;;;;20.77;10.73;;;;;;;;;;5029210;28;20076;-66
2023/10/21 02:02:05;;;;;;;17.73;8.70;;;;;;;;;;5033634;28;20456;-66
2023/10/21 02:04:30;;;;;;;19.20;8.27;;;;;;;;;;5028577;28;20017;-67
2023/10/21 02:06:56;;;;;;;17.20;7.78;;;;;;;;;;5025606;28;20052;-65
2023/10/21 02:09:21;;;;;;;19.60;7.85;;;;;;;;;;5027511;28;20073;-67
2023/10/21 02:11:47;;;;;;;12.13;6.85;;;;;;;;;;4997962;28;20083;-67
2023/10/21 02:14:12;;;;;;;15.10;7.55;;;;;;;;;;5029997;28;20053;-67
2023/10/21 02:16:37;;;;;;;13.40;7.15;;;;;;;;;;5028848;28;20013;-65
2023/10/21 02:19:02;;;;;;;13.10;7.50;;;;;;;;;;5039361;28;20029;-68
2023/10/21 02:21:28;;;;;;;12.82;7.75;;;;;;;;;;5034634;28;20076;-67
2023/10/21 02:23:53;;;;;;;12.50;7.47;;;;;;;;;;5024492;28;20314;-68
2023/10/21 02:26:18;;;;;;;15.70;7.10;;;;;;;;;;5038129;28;20052;-68
2023/10/21 02:28:43;;;;;;;12.35;7.35;;;;;;;;;;5027472;28;20021;-65
2023/10/21 02:31:09;;;;;;;12.88;7.35;;;;;;;;;;5024229;28;20426;-67
2023/10/21 02:33:34;;;;;;;16.05;7.25;;;;;;;;;;5034137;28;20045;-65
2023/10/21 02:35:59;;;;;;;10.93;6.30;;;;;;;;;;5027270;28;20026;-68
2023/10/21 02:38:25;;;;;;;10.15;6.53;;;;;;;;;;5025179;28;20527;-66
2023/10/21 02:40:50;;;;;;;11.68;7.03;;;;;;;;;;5006633;28;20517;-69
2023/10/21 02:43:16;;;;;;;12.27;7.18;;;;;;;;;;5031762;28;20046;-67
2023/10/21 02:45:42;;;;;;;10.18;6.38;;;;;;;;;;5027412;28;20151;-68
2023/10/21 02:48:08;;;;;;;14.65;6.97;;;;;;;;;;5031958;28;20025;-67
2023/10/21 02:50:33;;;;;;;14.80;7.65;;;;;;;;;;5026402;28;20071;-67
2023/10/21 02:52:58;;;;;;;16.63;7.38;;;;;;;;;;5009387;28;20029;-68
2023/10/21 02:55:27;;;;;;;16.08;7.10;;;;;;;;;;5035876;28;20547;-66
2023/10/21 02:57:52;;;;;;;14.57;7.00;;;;;;;;;;5030804;28;20025;-66
2023/10/21 03:00:21;;;;;;;12.85;7.05;;;;;;;;;;5025721;28;20139;-67
2023/10/21 03:02:48;;;;;;;12.20;7.05;;;;;;;;;;5025178;28;20409;-65
2023/10/21 03:05:14;;;;;;;14.85;7.30;;;;;;;;;;5027820;28;20071;-65
2023/10/21 03:07:39;;;;;;;11.80;6.82;;;;;;;;;;5036849;28;20021;-67
2023/10/21 03:10:05;;;;;;;13.13;7.15;;;;;;;;;;5027773;28;20044;-65
2023/10/21 03:12:30;;;;;;;14.15;7.45;;;;;;;;;;5025754;28;20020;-67
2023/10/21 03:14:55;;;;;;;12.20;7.03;;;;;;;;;;5019466;28;20100;-66
2023/10/21 03:17:20;;;;;;;13.95;7.18;;;;;;;;;;5028008;28;20025;-67
2023/10/21 03:19:46;;;;;;;14.32;7.65;;;;;;;;;;5029207;28;20388;-65
2023/10/21 03:22:11;;;;;;;14.88;7.70;;;;;;;;;;5026486;28;20587;-67
2023/10/21 03:24:36;;;;;;;12.75;7.63;;;;;;;;;;5028522;28;20496;-67
2023/10/21 03:27:02;;;;;;;13.35;7.63;;;;;;;;;;5027344;28;20183;-67
2023/10/21 03:29:27;;;;;;;13.55;7.30;;;;;;;;;;5024966;28;20018;-68
2023/10/21 03:31:52;;;;;;;13.07;7.57;;;;;;;;;;5026217;28;20013;-65
2023/10/21 03:34:17;;;;;;;16.67;7.88;;;;;;;;;;5025979;28;20053;-66
2023/10/21 03:36:43;;;;;;;12.45;7.32;;;;;;;;;;5024838;28;20112;-65
2023/10/21 03:39:08;;;;;;;14.40;7.88;;;;;;;;;;5027542;28;20116;-67
2023/10/21 03:41:33;;;;;;;13.93;7.88;;;;;;;;;;5025395;28;20019;-67
2023/10/21 03:43:59;;;;;;;13.57;8.10;;;;;;;;;;5026359;28;20031;-67
2023/10/21 03:46:24;;;;;;;14.45;7.40;;;;;;;;;;5027272;28;20029;-67
2023/10/21 03:48:49;;;;;;;11.93;7.15;;;;;;;;;;5034052;28;20025;-67
2023/10/21 03:51:15;;;;;;;11.57;7.28;;;;;;;;;;5027593;28;20353;-67
2023/10/21 03:53:40;;;;;;;14.57;7.22;;;;;;;;;;5035306;28;20333;-67
2023/10/21 03:56:06;;;;;;;14.65;7.95;;;;;;;;;;5028957;28;20065;-68
2023/10/21 03:58:31;;;;;;;17.95;8.82;;;;;;;;;;5013279;28;20029;-67
2023/10/21 04:00:57;;;;;;;18.80;8.75;;;;;;;;;;5029752;28;20161;-68
2023/10/21 04:03:25;;;;;;;13.73;8.18;;;;;;;;;;5028554;28;20006;-66
2023/10/21 04:05:50;;;;;;;16.60;8.57;;;;;;;;;;5023569;28;20558;-68
2023/10/21 04:08:16;;;;;;;13.23;7.95;;;;;;;;;;4999750;28;20021;-68
2023/10/21 04:10:41;;;;;;;18.38;8.43;;;;;;;;;;5029424;28;20263;-66
2023/10/21 04:13:06;;;;;;;15.73;8.65;;;;;;;;;;5019805;28;20013;-68
2023/10/21 04:15:32;;;;;;;17.17;8.80;;;;;;;;;;5018813;28;20428;-65
2023/10/21 04:17:58;;;;;;;14.55;8.13;;;;;;;;;;5023745;28;20532;-66
2023/10/21 04:20:23;;;;;;;15.43;8.85;;;;;;;;;;5034478;28;20054;-65
2023/10/21 04:22:48;;;;;;;15.13;8.57;;;;;;;;;;5021476;28;20078;-67
2023/10/21 04:25:13;;;;;;;12.55;7.50;;;;;;;;;;5016656;28;20022;-66
2023/10/21 04:27:39;;;;;;;12.93;7.35;;;;;;;;;;5025736;28;20022;-68
2023/10/21 04:30:04;;;;;;;13.65;8.07;;;;;;;;;;5025798;28;20065;-68
2023/10/21 04:32:30;;;;;;;15.90;8.20;;;;;;;;;;5029621;28;20022;-65
2023/10/21 04:34:56;;;;;;;19.83;7.95;;;;;;;;;;5026631;28;20100;-66
2023/10/21 04:37:21;;;;;;;12.18;7.18;;;;;;;;;;5026687;28;20026;-67
2023/10/21 04:39:46;;;;;;;20.40;8.48;;;;;;;;;;5028361;28;20020;-69
2023/10/21 04:42:11;;;;;;;17.13;7.82;;;;;;;;;;5027054;28;20105;-66
2023/10/21 04:44:37;;;;;;;13.38;8.02;;;;;;;;;;5027009;28;20032;-67
2023/10/21 04:47:02;;;;;;;13.73;7.50;;;;;;;;;;5028777;28;20384;-67
2023/10/21 04:49:28;;;;;;;12.85;7.20;;;;;;;;;;5029461;28;20535;-67
2023/10/21 04:51:53;;;;;;;13.35;6.93;;;;;;;;;;5027138;28;20025;-67
2023/10/21 04:54:18;;;;;;;15.25;7.38;;;;;;;;;;5027659;28;20606;-67
2023/10/21 04:56:43;;;;;;;15.73;7.03;;;;;;;;;;5031758;28;20047;-68
2023/10/21 04:59:09;;;;;;;12.35;6.53;;;;;;;;;;5024394;28;20040;-66
2023/10/21 05:01:34;;;;;;;14.00;6.15;;;;;;;;;;5032397;28;20018;-67
2023/10/21 05:03:59;;;;;;;10.75;5.38;;;;;;;;;;5031186;28;20111;-66
2023/10/21 05:06:24;;;;;;;13.73;6.43;;;;;;;;;;5026253;28;20017;-66
2023/10/21 05:08:50;;;;;;;8.35;5.38;;;;;;;;;;5029812;28;20484;-67
2023/10/21 05:11:15;;;;;;;14.80;5.65;;;;;;;;;;5026413;28;20243;-67
2023/10/21 05:13:40;;;;;;;8.90;5.20;;;;;;;;;;5026049;28;20120;-66
2023/10/21 05:16:07;;;;;;;8.85;4.97;;;;;;;;;;5032085;28;20089;-67
2023/10/21 05:18:32;;;;;;;8.68;4.45;;;;;;;;;;5039579;28;20333;-69
2023/10/21 05:20:57;;;;;;;7.63;4.38;;;;;;;;;;5028650;28;20129;-65
2023/10/21 05:23:23;;;;;;;8.38;3.88;;;;;;;;;;5026259;28;20025;-68
2023/10/21 05:25:49;;;;;;;8.43;3.63;;;;;;;;;;5030962;28;20036;-66
2023/10/21 05:28:14;;;;;;;7.75;3.97;;;;;;;;;;5026201;28;20507;-67
2023/10/21 05:30:41;;;;;;;5.43;2.97;;;;;;;;;;5041287;28;20013;-68
2023/10/21 05:33:06;;;;;;;6.68;2.92;;;;;;;;;;5027017;28;20048;-70
2023/10/21 05:35:32;;;;;;;7.80;3.17;;;;;;;;;;5029735;28;20045;-68
2023/10/21 05:37:57;;;;;;;4.80;2.47;;;;;;;;;;5032092;28;20111;-65
2023/10/21 05:40:25;;;;;;;4.15;2.25;;;;;;;;;;5026882;28;20091;-67
2023/10/21 05:42:50;;;;;;;4.13;2.25;;;;;;;;;;5016134;28;20017;-68
2023/10/21 05:45:15;;;;;;;6.13;2.20;;;;;;;;;;5022923;28;20604;-66
2023/10/21 05:47:40;;;;;;;4.00;1.92;;;;;;;;;;5033627;28;20017;-68
2023/10/21 05:50:06;;;;;;;4.28;1.95;;;;;;;;;;5025492;28;20036;-67
2023/10/21 05:52:31;;;;;;;5.65;1.67;;;;;;;;;;5025664;28;20372;-68
2023/10/21 05:54:57;;;;;;;3.00;1.80;;;;;;;;;;5023409;28;20488;-64
2023/10/21 05:57:22;;;;;;;3.38;1.45;;;;;;;;;;5023797;28;20024;-66
2023/10/21 05:59:47;;;;;;;2.38;1.30;;;;;;;;;;5026985;28;20017;-64
2023/10/21 06:02:12;;;;;;;3.90;1.55;;;;;;;;;;5025030;28;20048;-67
2023/10/21 06:04:38;;;;;;;5.35;1.48;;;;;;;;;;5015054;28;20321;-65
2023/10/21 06:07:03;;;;;;;2.00;0.93;;;;;;;;;;5029901;28;20101;-67
2023/10/21 06:09:28;;;;;;;3.30;1.52;;;;;;;;;;5031726;28;20326;-67
2023/10/21 06:11:54;;;;;;;1.88;1.20;;;;;;;;;;5032012;28;20396;-66
2023/10/21 06:14:19;;;;;;;3.63;1.05;;;;;;;;;;5036157;28;20538;-67
2023/10/21 06:16:44;;;;;;;2.97;1.25;;;;;;;;;;5025785;28;20025;-67
2023/10/21 06:19:09;;;;;;;1.50;1.00;;;;;;;;;;5023585;28;20132;-67
2023/10/21 06:21:35;;;;;;;5.00;1.38;;;;;;;;;;5029582;28;20404;-67
2023/10/21 06:24:01;;;;;;;1.42;1.00;;;;;;;;;;5016458;28;20025;-67
2023/10/21 06:26:26;;;;;;;2.63;0.93;;;;;;;;;;5044864;28;20013;-65
2023/10/21 06:28:51;;;;;;;1.98;1.00;;;;;;;;;;5032117;28;20014;-66
2023/10/21 06:31:16;;;;;;;2.13;1.00;;;;;;;;;;5028934;28;20017;-68
2023/10/21 06:33:41;;;;;;;2.88;1.05;;;;;;;;;;5036790;28;20040;-67
2023/10/21 06:36:07;;;;;;;2.20;1.05;;;;;;;;;;5034405;28;20098;-67
2023/10/21 06:38:33;;;;;;;2.25;0.80;;;;;;;;;;5038124;28;20026;-68
2023/10/21 06:40:58;;;;;;;1.55;0.77;;;;;;;;;;5033440;28;20048;-65
2023/10/21 06:43:24;;;;;;;5.03;1.33;;;;;;;;;;5036401;28;20010;-67
2023/10/21 06:45:49;;;;;;;3.65;1.10;;;;;;;;;;5042621;28;20071;-66
2023/10/21 06:48:14;;;;;;;2.00;1.00;;;;;;;;;;5033154;28;20009;-65
2023/10/21 06:50:40;;;;;;;2.92;1.23;;;;;;;;;;5035643;28;20014;-67
2023/10/21 06:53:06;;;;;;;4.60;1.27;;;;;;;;;;5036563;28;20025;-66
2023/10/21 06:55:39;;;;;;;3.22;1.00;;;;;;;;;;5029591;28;20038;-68
2023/10/21 06:58:04;;;;;;;1.67;0.82;;;;;;;;;;5028986;28;20032;-67
2023/10/21 07:00:30;;;;;;;1.38;0.75;;;;;;;;;;5029594;28;20014;-68
2023/10/21 07:02:55;;;;;;;3.15;1.00;;;;;;;;;;5035814;28;20115;-68
2023/10/21 07:05:20;;;;;;;1.98;0.90;;;;;;;;;;5027082;28;20013;-67
2023/10/21 07:07:45;;;;;;;1.50;0.90;;;;;;;;;;5023718;28;20095;-64
2023/10/21 07:10:11;;;;;;;1.13;0.82;;;;;;;;;;5032006;28;20024;-68
2023/10/21 07:12:36;;;;;;;2.88;0.95;;;;;;;;;;5036779;28;20112;-67
2023/10/21 07:15:01;;;;;;;2.38;0.93;;;;;;;;;;5010875;28;20075;-67
2023/10/21 07:17:28;;;;;;;2.20;1.10;;;;;;;;;;5029004;28;20093;-64
2023/10/21 07:19:55;;;;;;;3.67;1.40;;;;;;;;;;5010598;28;20056;-66
2023/10/21 07:22:21;;;;;;;3.47;1.42;;;;;;;;;;5025641;28;20021;-67
2023/10/21 07:24:46;;;;;;;2.00;1.13;;;;;;;;;;5026327;28;20044;-67
2023/10/21 07:27:12;;;;;;;2.40;1.17;;;;;;;;;;5028781;28;20022;-67
2023/10/21 07:29:37;;;;;;;3.45;1.67;;;;;;;;;;5028529;28;20025;-65
2023/10/21 07:32:02;;;;;;;3.08;1.35;;;;;;;;;;5030224;28;20099;-68
2023/10/21 07:34:28;;;;;;;4.28;1.60;;;;;;;;;;5028714;28;20025;-66
2023/10/21 07:36:53;;;;;;;2.78;1.20;;;;;;;;;;5027692;28;20040;-67
2023/10/21 07:39:18;;;;;;;3.53;1.23;;;;;;;;;;5028416;28;20025;-68
2023/10/21 07:41:44;;;;;;;4.70;1.30;;;;;;;;;;5028467;28;20016;-66
2023/10/21 07:44:09;;;;;;;3.03;1.15;;;;;;;;;;5028605;28;20031;-65
2023/10/21 07:46:34;;;;;;;2.63;0.90;;;;;;;;;;5027503;28;20158;-66
2023/10/21 07:48:59;;;;;;;2.55;1.00;;;;;;;;;;5028256;28;20017;-69
2023/10/21 07:51:28;;;;;;;2.08;1.10;;;;;;;;;;5028671;28;20029;-67
2023/10/21 07:53:53;;;;;;;1.33;0.88;;;;;;;;;;5028553;28;20056;-65
2023/10/21 07:56:19;;;;;;;5.53;1.23;;;;;;;;;;5027564;28;20445;-69
2023/10/21 07:58:44;;;;;;;2.70;1.02;;;;;;;;;;5031269;28;20608;-66
2023/10/21 08:01:10;;;;;;;2.00;1.15;;;;;;;;;;5043333;28;20025;-67
2023/10/21 08:03:35;;;;;;;2.40;1.08;;;;;;;;;;5030926;28;20105;-68
2023/10/21 08:06:01;;;;;;;9.48;2.38;;;;;;;;;;5035869;28;20092;-67
2023/10/21 08:08:27;;;;;;;10.15;3.42;;;;;;;;;;5036023;28;20465;-67
2023/10/21 08:10:58;;;;;;;10.90;3.42;;;;;;;;;;5027303;28;20049;-65
2023/10/21 08:13:23;;;;;;;6.80;2.17;;;;;;;;;;5032320;28;20162;-67
2023/10/21 08:15:49;;;;;;;4.47;1.00;;;;;;;;;;5036365;28;20518;-67
2023/10/21 08:18:14;;;;;;;1.70;0.85;;;;;;;;;;5027473;28;20020;-65
2023/10/21 08:20:39;;;;;;;1.02;0.68;;;;;;;;;;5038878;28;20017;-67
2023/10/21 08:23:04;;;;;;;3.33;0.95;;;;;;;;;;5032016;28;20014;-66
2023/10/21 08:25:30;;;;;;;1.35;0.80;;;;;;;;;;5033873;28;20021;-67
2023/10/21 08:27:55;;;;;;;0.40;0.40;;;;;;;;;;5027304;28;20017;-65
2023/10/21 08:30:20;;;;;;;1.80;0.60;;;;;;;;;;5027261;28;20085;-67
2023/10/21 08:32:47;;;;;;;3.35;0.60;;;;;;;;;;5027182;28;20099;-66
2023/10/21 08:35:13;;;;;;;1.30;0.77;;;;;;;;;;5027042;28;20028;-66
2023/10/21 08:37:38;;;;;;;0.95;0.65;;;;;;;;;;5030443;28;20061;-66
2023/10/21 08:40:07;;;;;;;1.15;0.70;;;;;;;;;;5031431;28;20504;-65
2023/10/21 08:42:33;;;;;;;0.73;0.50;;;;;;;;;;5026546;28;20009;-64
2023/10/21 08:45:00;;;;;;;1.58;0.68;;;;;;;;;;5027191;28;20017;-68
2023/10/21 08:47:26;;;;;;;4.78;0.70;;;;;;;;;;5038518;28;20032;-65
2023/10/21 08:49:52;;;;;;;1.75;0.70;;;;;;;;;;5027199;28;20021;-67
2023/10/21 08:52:17;;;;;;;4.70;0.70;;;;;;;;;;5024971;28;20036;-66
2023/10/21 08:54:43;;;;;;;3.22;0.50;;;;;;;;;;5024214;28;20605;-66
2023/10/21 08:57:09;;;;;;;2.28;0.70;;;;;;;;;;5024685;28;20108;-66
2023/10/21 08:59:35;;;;;;;3.30;0.63;;;;;;;;;;5025840;28;20115;-66
2023/10/21 09:02:01;;;;;;;0.65;0.60;;;;;;;;;;5026555;28;20020;-66
2023/10/21 09:04:26;;;;;;;1.52;0.60;;;;;;;;;;5026159;28;20081;-67
2023/10/21 09:06:55;;;;;;;3.00;0.60;;;;;;;;;;5025751;28;20461;-68
2023/10/21 09:09:23;;;;;;;4.25;0.70;;;;;;;;;;5032092;28;20025;-66
2023/10/21 09:12:01;;;;;;;0.80;0.57;;;;;;;;;;5008375;28;20152;-67
2023/10/21 09:14:26;;;;;;;0.95;0.65;;;;;;;;;;5025651;28;20097;-67
2023/10/21 09:16:54;;;;;;;1.10;0.60;;;;;;;;;;5025514;28;20108;-67
2023/10/21 09:19:23;;;;;;;0.50;0.50;;;;;;;;;;5025860;28;20446;-67
2023/10/21 09:21:49;;;;;;;1.02;0.40;;;;;;;;;;5026902;28;20114;-66
2023/10/21 09:24:24;;;;;;;0.52;0.40;;;;;;;;;;5026061;28;20462;-67
2023/10/21 09:26:50;;;;;;;1.27;0.47;;;;;;;;;;5028257;28;20014;-67
2023/10/21 09:29:18;;;;;;;0.90;0.65;;;;;;;;;;5016404;28;20021;-67
2023/10/21 09:31:51;;;;;;;0.73;0.50;;;;;;;;;;5027821;28;20112;-66
2023/10/21 09:34:27;;;;;;;4.10;0.50;;;;;;;;;;5026257;28;20080;-66
2023/10/21 09:36:53;;;;;;;1.20;0.50;;;;;;;;;;5022033;28;20027;-67
2023/10/21 09:39:18;;;;;;;1.85;0.57;;;;;;;;;;5025083;28;20018;-67
2023/10/21 09:41:45;;;;;;;0.63;0.60;;;;;;;;;;5023070;28;20464;-67
2023/10/21 09:44:13;;;;;;;3.42;0.82;;;;;;;;;;5021108;28;20109;-67
2023/10/21 09:46:39;;;;;;;0.98;0.47;;;;;;;;;;5021798;28;20018;-67
2023/10/21 09:49:05;;;;;;;1.02;0.65;;;;;;;;;;5005095;28;20028;-68
2023/10/21 09:51:32;;;;;;;1.13;0.50;;;;;;;;;;5033022;28;20021;-68
2023/10/21 09:54:00;;;;;;;3.10;0.60;;;;;;;;;;5033629;28;20326;-66
2023/10/21 09:56:26;;;;;;;1.80;0.52;;;;;;;;;;5026831;28;20032;-69
2023/10/21 09:58:53;;;;;;;4.07;0.63;;;;;;;;;;5031132;28;20099;-67
2023/10/21 10:01:23;;;;;;;2.22;0.63;;;;;;;;;;5029817;28;20107;-65
2023/10/21 10:03:50;;;;;;;2.45;0.60;;;;;;;;;;5008947;28;20036;-67
2023/10/21 10:06:17;;;;;;;1.02;0.60;;;;;;;;;;5027240;28;20060;-68
2023/10/21 10:08:45;;;;;;;0.98;0.63;;;;;;;;;;5032178;28;20029;-66
2023/10/21 10:11:15;;;;;;;0.80;0.50;;;;;;;;;;5024450;28;20061;-65
2023/10/21 10:13:42;;;;;;;1.48;0.60;;;;;;;;;;5029651;28;20095;-68
2023/10/21 10:16:23;;;;;;;1.38;0.57;;;;;;;;;;5030142;28;20021;-68
2023/10/21 10:18:50;;;;;;;4.20;0.70;;;;;;;;;;5022757;28;20124;-68
2023/10/21 10:21:15;;;;;;;2.00;0.60;;;;;;;;;;5036035;28;20028;-68
2023/10/21 10:23:47;;;;;;;0.30;0.30;;;;;;;;;;5027542;28;20022;-67
2023/10/21 10:26:14;;;;;;;0.93;0.50;;;;;;;;;;5029920;28;20041;-68
2023/10/21 10:28:40;;;;;;;0.68;0.40;;;;;;;;;;5029559;28;20120;-69
2023/10/21 10:31:05;;;;;;;1.10;0.50;;;;;;;;;;5031809;28;20136;-71
2023/10/21 10:33:38;;;;;;;1.13;0.40;;;;;;;;;;5026084;28;20026;-72
2023/10/21 10:36:06;;;;;;;1.13;0.50;;;;;;;;;;5029600;28;20025;-70
2023/10/21 10:38:33;;;;;;;8.75;1.80;;;;;;;;;;5033510;28;20018;-69
2023/10/21 10:41:09;;;;;;;1.80;0.50;;;;;;;;;;5024632;28;20457;-67
2023/10/21 10:43:44;;;;;;;1.15;0.57;;;;;;;;;;5022429;28;20030;-69
2023/10/21 10:46:10;;;;;;;2.85;0.60;;;;;;;;;;5027813;28;20085;-69
2023/10/21 10:48:36;;;;;;;0.75;0.60;;;;;;;;;;5029805;28;20022;-68
2023/10/21 10:51:06;;;;;;;0.45;0.30;;;;;;;;;;5024577;28;20030;-69
2023/10/21 10:53:34;;;;;;;4.15;0.40;;;;;;;;;;5032932;28;20033;-69
2023/10/21 10:55:59;;;;;;;1.25;0.40;;;;;;;;;;5032556;28;20070;-68
2023/10/21 10:58:27;;;;;;;0.50;0.47;;;;;;;;;;5026836;28;20029;-70
2023/10/21 11:00:53;;;;;;;2.35;0.68;;;;;;;;;;5016438;28;20180;-68
2023/10/21 11:03:33;;;;;;;1.23;0.43;;;;;;;;;;5026906;28;20045;-70
2023/10/21 11:05:59;;;;;;;2.65;0.38;;;;;;;;;;5022758;28;20083;-69
2023/10/21 11:08:25;;;;;;;2.85;0.40;;;;;;;;;;5034593;28;20021;-68
2023/10/21 11:10:53;;;;;;;1.13;0.40;;;;;;;;;;5034622;28;20025;-67
2023/10/21 11:13:18;;;;;;;0.52;0.40;;;;;;;;;;5025963;28;20022;-68
2023/10/21 11:15:47;;;;;;;10.45;0.65;;;;;;;;;;5037252;28;20033;-67
2023/10/21 11:18:13;;;;;;;0.32;0.32;;;;;;;;;;5028194;28;20064;-66
2023/10/21 11:20:48;;;;;;;0.50;0.40;;;;;;;;;;5031761;28;20060;-68
2023/10/21 11:23:14;;;;;;;0.75;0.50;;;;;;;;;;5034142;28;20030;-69
2023/10/21 11:25:40;;;;;;;2.03;0.60;;;;;;;;;;5015220;28;20369;-68
2023/10/21 11:28:06;;;;;;;0.75;0.40;;;;;;;;;;5030221;28;20045;-68
2023/10/21 11:30:33;;;;;;;0.50;0.40;;;;;;;;;;5030437;28;20131;-67
2023/10/21 11:33:05;;;;;;;0.65;0.50;;;;;;;;;;5033679;28;20158;-69
2023/10/21 11:35:30;;;;;;;0.88;0.43;;;;;;;;;;5023089;28;20472;-70
2023/10/21 11:37:56;;;;;;;0.63;0.40;;;;;;;;;;5029549;28;20108;-66
2023/10/21 11:40:21;;;;;;;0.65;0.30;;;;;;;;;;5027666;28;20029;-68
2023/10/21 11:43:05;;;;;;;0.90;0.47;;;;;;;;;;5018487;28;20014;-70
2023/10/21 11:45:31;;;;;;;0.50;0.50;;;;;;;;;;5024311;28;20021;-69
2023/10/21 11:48:08;;;;;;;1.20;0.70;;;;;;;;;;5027662;28;20049;-67
2023/10/21 11:50:34;;;;;;;0.45;0.40;;;;;;;;;;5027706;28;20044;-70
2023/10/21 11:53:02;;;;;;;2.58;0.45;;;;;;;;;;5025933;28;20481;-69
2023/10/21 12:17:50;;;;;;;1.27;0.40;;;;;;;;;;5032065;28;20029;-71
2023/10/21 12:33:46;;;;;;;2.10;0.40;;;;;;;;;;5042072;28;20031;-68
2023/10/21 12:36:20;;;;;;;2.42;0.70;;;;;;;;;;5040877;28;20033;-69
2023/10/21 12:39:19;;;;;;;2.30;1.42;;;;;;;;;;5015129;28;20047;-68
2023/10/21 12:41:52;;;;;;;0.98;0.60;;;;;;;;;;5026606;28;20017;-66
2023/10/21 12:44:23;;;;;;;0.70;0.45;;;;;;;;;;5032957;28;20164;-66
2023/10/21 12:46:55;;;;;;;1.10;0.65;;;;;;;;;;5027530;28;20035;-66
2023/10/21 12:49:20;;;;;;;1.70;1.05;;;;;;;;;;5035380;28;20025;-68
2023/10/21 12:51:46;;;;;;;1.23;0.40;;;;;;;;;;5018513;28;20035;-68
2023/10/21 12:54:11;;;;;;;1.07;0.40;;;;;;;;;;5031234;28;20100;-68
2023/10/21 12:56:39;;;;;;;0.40;0.40;;;;;;;;;;5026165;28;20281;-68
2023/10/21 12:59:06;;;;;;;;;;;;;;;;;;5027507;28;20025;-68
2023/10/21 13:01:33;;;;;;;0.55;0.35;;;;;;;;;;5026556;28;19996;-68
2023/10/21 13:03:58;;;;;;;1.52;0.50;;;;;;;;;;5028137;28;20021;-66
2023/10/21 13:06:23;;;;;;;0.97;0.47;;;;;;;;;;5033588;28;20026;-66
2023/10/21 13:08:51;;;;;;;3.37;0.40;;;;;;;;;;5031011;28;20348;-66
2023/10/21 13:11:17;;;;;;;1.95;0.50;;;;;;;;;;5027896;28;20362;-67
2023/10/21 13:13:43;;;;;;;2.15;0.70;;;;;;;;;;5034650;28;20038;-66
2023/10/21 13:16:09;;;;;;;0.40;0.40;;;;;;;;;;5021872;28;20096;-66
2023/10/21 13:18:34;;;;;;;2.30;0.60;;;;;;;;;;5033784;28;20025;-69
2023/10/21 13:21:00;;;;;;;1.75;0.50;;;;;;;;;;5017706;28;20147;-69
2023/10/21 13:23:25;;;;;;;2.97;0.70;;;;;;;;;;5026829;28;20384;-70
2023/10/21 13:25:51;;;;;;;2.67;0.57;;;;;;;;;;5040110;28;20583;-66
2023/10/21 13:28:17;;;;;;;1.83;0.43;;;;;;;;;;5033261;28;20261;-67
2023/10/21 13:30:44;;;;;;;1.65;0.80;;;;;;;;;;5027970;28;20025;-67
2023/10/21 13:33:10;;;;;;;1.88;0.60;;;;;;;;;;5026539;28;20104;-68
2023/10/21 13:35:35;;;;;;;2.85;0.52;;;;;;;;;;5024392;28;20172;-67
2023/10/21 13:38:01;;;;;;;3.58;0.70;;;;;;;;;;5031120;28;20535;-67
2023/10/21 13:40:26;;;;;;;7.30;0.45;;;;;;;;;;5029432;28;20018;-68
2023/10/21 13:42:52;;;;;;;1.10;0.50;;;;;;;;;;5018934;28;20056;-66
2023/10/21 13:45:21;;;;;;;1.48;0.50;;;;;;;;;;5017418;28;20030;-68
2023/10/21 13:47:49;;;;;;;4.32;1.02;;;;;;;;;;5019574;28;20025;-67
2023/10/21 13:50:15;;;;;;;5.32;1.30;;;;;;;;;;5018722;28;20038;-69
2023/10/21 13:52:47;;;;;;;3.95;1.48;;;;;;;;;;5018929;28;20045;-67
2023/10/21 13:55:14;;;;;;;1.58;0.80;;;;;;;;;;5017713;28;20162;-65
2023/10/21 13:57:45;;;;;;;1.90;0.55;;;;;;;;;;5019099;28;20094;-66
2023/10/21 14:00:25;;;;;;;2.13;0.60;;;;;;;;;;5019101;28;20176;-67
2023/10/21 14:02:53;;;;;;;1.02;0.50;;;;;;;;;;5019536;28;20034;-67
2023/10/21 14:05:20;;;;;;;2.80;0.43;;;;;;;;;;5017097;28;20103;-68
2023/10/21 14:07:45;;;;;;;1.65;0.57;;;;;;;;;;5019747;28;20121;-67
2023/10/21 14:10:11;;;;;;;1.77;0.60;;;;;;;;;;5020158;28;20208;-68
2023/10/21 14:12:36;;;;;;;3.25;0.63;;;;;;;;;;5018527;28;20021;-69
2023/10/21 14:15:10;;;;;;;1.73;0.65;;;;;;;;;;5017956;28;20693;-70
2023/10/21 14:17:35;;;;;;;1.42;0.70;;;;;;;;;;5018606;28;20630;-67
2023/10/21 14:20:00;;;;;;;2.17;0.50;;;;;;;;;;5019237;28;20103;-67
2023/10/21 14:22:25;;;;;;;1.90;0.77;;;;;;;;;;5019463;28;20029;-66
2023/10/21 14:24:51;;;;;;;0.70;0.40;;;;;;;;;;5017668;28;20026;-71
2023/10/21 14:27:19;;;;;;;0.43;0.40;;;;;;;;;;5018562;28;20033;-68
2023/10/21 14:29:46;;;;;;;1.90;0.52;;;;;;;;;;5018393;28;20892;-67
2023/10/21 14:32:11;;;;;;;5.20;1.00;;;;;;;;;;5017980;28;20531;-68
2023/10/21 14:34:38;;;;;;;2.08;0.80;;;;;;;;;;4999693;28;20033;-67
2023/10/21 14:37:03;;;;;;;5.45;1.00;;;;;;;;;;5015377;28;20041;-66
2023/10/21 14:39:29;;;;;;;1.38;0.90;;;;;;;;;;5019454;28;20022;-67
2023/10/21 14:41:54;;;;;;;2.63;1.00;;;;;;;;;;5021573;28;20040;-67
2023/10/21 14:44:19;;;;;;;3.30;0.90;;;;;;;;;;5022750;28;20028;-66
2023/10/21 14:46:46;;;;;;;1.85;0.70;;;;;;;;;;5020011;28;20040;-67
2023/10/21 14:49:12;;;;;;;1.95;0.80;;;;;;;;;;5022936;28;20440;-64
2023/10/21 14:51:37;;;;;;;2.45;0.80;;;;;;;;;;5021821;28;20060;-69
2023/10/21 14:54:03;;;;;;;2.15;0.77;;;;;;;;;;5022677;28;20535;-67
2023/10/21 14:56:29;;;;;;;0.63;0.63;;;;;;;;;;5020882;28;20088;-68
2023/10/21 14:58:54;;;;;;;2.42;0.70;;;;;;;;;;5022277;28;20130;-67
2023/10/21 15:01:19;;;;;;;1.63;0.70;;;;;;;;;;5022384;28;20061;-64
2023/10/21 15:03:45;;;;;;;5.10;0.93;;;;;;;;;;5021292;28;20131;-67
2023/10/21 15:06:10;;;;;;;2.78;0.85;;;;;;;;;;5017941;28;20087;-67
2023/10/21 15:08:39;;;;;;;2.53;1.20;;;;;;;;;;5020792;28;20033;-68